Time;durP1;ratioP1;P1;durP2;ratioP2;P2;SDS_P1;SDS_P2;PMS_P1;PMS_P2;Temp;Humidity;BMP_temperature;BMP_pressure;BME280_temperature;BME280_humidity;BME280_pressure;Samples;Min_cycle;Max_cycle;Signal;HPM_P1;HPM_P2
2021/06/23 00:01:58;;;;;;;12.35;5.30;;;;;;;24.39;66.21;100154.55;1814216;77;22709;-64
2021/06/23 00:04:31;;;;;;;9.90;5.10;;;;;;;24.38;65.89;100150.14;1824830;77;22163;-64
2021/06/23 00:07:05;;;;;;;9.48;5.47;;;;;;;24.33;65.98;100147.31;1825427;77;22238;-64
2021/06/23 00:09:38;;;;;;;7.05;4.85;;;;;;;24.21;66.23;100144.17;1826772;77;22591;-64
2021/06/23 00:12:28;;;;;;;10.78;5.80;;;;;;;24.16;66.30;100147.68;1775941;80;21681;-61
2021/06/23 00:15:00;;;;;;;10.00;7.00;;;;;;;24.16;66.31;100144.99;1820356;77;22167;-64
2021/06/23 00:17:33;;;;;;;6.22;4.92;;;;;;;24.12;66.24;100152.44;1811864;77;22198;-63
2021/06/23 00:20:07;;;;;;;9.55;7.40;;;;;;;24.10;66.20;100149.47;1822672;77;22147;-63
2021/06/23 00:22:53;;;;;;;10.48;7.00;;;;;;;24.01;66.02;100164.45;1768395;80;21141;-62
2021/06/23 00:25:26;;;;;;;13.43;7.90;;;;;;;23.92;66.17;100164.60;1834564;77;22176;-64
2021/06/23 00:27:59;;;;;;;15.18;8.33;;;;;;;23.85;66.34;100163.32;1803114;77;22205;-62
2021/06/23 00:30:44;;;;;;;11.95;7.58;;;;;;;23.77;66.59;100155.82;1737864;81;21573;-62
2021/06/23 00:33:22;;;;;;;15.78;8.08;;;;;;;23.87;66.77;100147.95;1808989;77;22618;-64
2021/06/23 00:35:55;;;;;;;11.53;7.72;;;;;;;23.88;66.86;100145.14;1833808;77;22124;-62
2021/06/23 00:38:41;;;;;;;14.00;8.88;;;;;;;23.84;66.99;100141.45;1741562;80;21158;-64
2021/06/23 00:43:50;;;;;;;17.45;11.08;;;;;;;23.91;67.25;100146.76;1913403;74;28243;-63
2021/06/23 00:46:23;;;;;;;13.25;8.88;;;;;;;23.89;67.47;100145.52;1822596;77;22151;-62
2021/06/23 00:48:57;;;;;;;16.82;9.03;;;;;;;23.94;67.52;100141.16;1824771;77;22124;-63
2021/06/23 00:51:31;;;;;;;11.40;8.60;;;;;;;23.93;67.59;100139.45;1851724;77;22615;-63
2021/06/23 00:54:27;;;;;;;10.50;8.30;;;;;;;23.88;67.56;100139.77;1774541;80;21190;-62
2021/06/23 00:57:06;;;;;;;13.25;7.87;;;;;;;23.87;67.77;100136.70;1792858;77;22193;-62
2021/06/23 00:59:39;;;;;;;14.07;9.40;;;;;;;23.86;67.95;100133.64;1826917;77;22127;-63
2021/06/23 01:02:25;;;;;;;13.38;8.78;;;;;;;23.81;68.21;100145.23;1782942;80;21177;-64
2021/06/23 01:04:58;;;;;;;14.10;8.43;;;;;;;23.78;68.44;100137.86;1818154;77;22642;-61
2021/06/23 01:07:31;;;;;;;13.62;9.10;;;;;;;23.82;68.47;100138.89;1813471;77;22179;-63
2021/06/23 01:10:05;;;;;;;16.90;9.43;;;;;;;23.85;68.64;100132.42;1834555;77;22180;-62
2021/06/23 01:13:09;;;;;;;14.43;9.95;;;;;;;23.89;68.90;100131.23;1817347;77;22202;-62
2021/06/23 01:15:43;;;;;;;11.60;8.85;;;;;;;23.89;69.28;100124.01;1821673;77;22745;-62
2021/06/23 01:18:16;;;;;;;13.22;8.13;;;;;;;23.87;69.54;100128.64;1815654;77;22210;-62
2021/06/23 01:21:05;;;;;;;13.28;8.55;;;;;;;23.84;69.68;100137.42;1793177;80;21612;-63
2021/06/23 01:23:38;;;;;;;16.23;8.85;;;;;;;23.91;69.72;100122.58;1797459;77;22191;-62
2021/06/23 01:26:11;;;;;;;9.85;8.23;;;;;;;23.92;69.60;100136.39;1822566;77;22191;-61
2021/06/23 01:28:45;;;;;;;10.58;7.00;;;;;;;23.94;69.47;100139.82;1820592;77;22174;-62
2021/06/23 01:31:19;;;;;;;7.95;6.45;;;;;;;23.96;69.53;100144.60;1849694;77;22625;-62
2021/06/23 01:34:05;;;;;;;8.35;6.25;;;;;;;24.00;69.34;100155.54;1764467;80;21544;-62
2021/06/23 01:36:38;;;;;;;10.63;6.85;;;;;;;24.08;69.36;100152.28;1813731;77;22193;-61
2021/06/23 01:39:11;;;;;;;10.28;6.33;;;;;;;24.09;69.43;100142.37;1834504;77;22148;-61
2021/06/23 01:41:45;;;;;;;10.55;6.72;;;;;;;24.04;69.71;100148.97;1827114;77;22273;-63
2021/06/23 01:44:19;;;;;;;9.68;6.72;;;;;;;24.08;69.72;100146.91;1812139;77;22163;-64
2021/06/23 01:47:05;;;;;;;11.97;6.58;;;;;;;24.13;69.66;100153.28;1753430;81;21234;-64
2021/06/23 01:49:40;;;;;;;11.48;6.97;;;;;;;24.23;69.63;100152.14;1848467;77;22171;-61
2021/06/23 01:52:13;;;;;;;8.50;6.40;;;;;;;24.23;69.67;100154.83;1814869;77;22179;-61
2021/06/23 01:54:46;;;;;;;17.00;5.35;;;;;;;24.21;69.70;100157.62;1819739;77;22195;-63
2021/06/23 01:57:19;;;;;;;10.30;6.17;;;;;;;24.16;69.44;100158.44;1822212;77;22210;-64
2021/06/23 01:59:52;;;;;;;8.65;6.05;;;;;;;24.00;69.99;100162.73;1827134;77;22524;-64
2021/06/23 02:02:51;;;;;;;8.00;6.25;;;;;;;23.92;70.20;100156.54;1757192;80;21178;-62
2021/06/23 02:05:35;;;;;;;9.25;6.45;;;;;;;23.99;70.20;100159.20;1853048;77;22155;-61
2021/06/23 02:08:26;;;;;;;11.53;5.53;;;;;;;24.05;70.12;100164.60;1806113;77;22655;-62
2021/06/23 02:11:36;;;;;;;6.90;5.92;;;;;;;24.06;70.00;100170.35;1740397;81;21344;-63
2021/06/23 02:14:39;;;;;;;9.93;5.92;;;;;;;24.15;69.72;100162.09;1852929;77;22124;-63
2021/06/23 02:17:13;;;;;;;6.50;5.12;;;;;;;24.19;69.49;100161.78;1819519;77;22621;-61
2021/06/23 02:19:48;;;;;;;6.03;5.45;;;;;;;24.12;69.58;100158.28;1813595;77;22244;-63
2021/06/23 02:22:35;;;;;;;6.50;4.92;;;;;;;23.94;69.90;100170.73;1774427;80;21308;-64
2021/06/23 02:25:10;;;;;;;5.85;4.87;;;;;;;24.01;69.77;100173.39;1834571;77;22152;-64
2021/06/23 02:27:44;;;;;;;9.75;6.80;;;;;;;24.05;69.54;100178.05;1797537;77;28088;-63
2021/06/23 02:30:18;;;;;;;10.23;6.72;;;;;;;24.12;69.30;100183.36;1824731;77;22120;-61
2021/06/23 02:32:54;;;;;;;11.57;7.05;;;;;;;24.01;69.47;100181.45;1815039;77;22167;-62
2021/06/23 02:35:42;;;;;;;11.88;6.08;;;;;;;23.97;69.35;100182.61;1758986;81;21560;-62
2021/06/23 02:38:16;;;;;;;10.18;6.55;;;;;;;23.97;69.23;100182.61;1802509;77;22241;-62
2021/06/23 02:40:50;;;;;;;9.65;6.20;;;;;;;23.96;69.15;100182.70;1816615;77;22150;-62
2021/06/23 02:43:23;;;;;;;9.20;6.53;;;;;;;23.95;69.10;100183.20;1807844;77;22171;-62
2021/06/23 02:45:57;;;;;;;9.40;6.45;;;;;;;23.98;69.15;100195.55;1827354;77;22177;-62
2021/06/23 02:48:30;;;;;;;9.50;6.35;;;;;;;24.00;69.08;100182.89;1799541;77;22182;-62
2021/06/23 02:51:21;;;;;;;7.75;6.90;;;;;;;24.00;69.05;100190.48;1834635;77;22183;-64
2021/06/23 02:53:56;;;;;;;9.15;6.37;;;;;;;24.05;68.87;100191.02;1826976;77;22633;-62
2021/06/23 02:56:29;;;;;;;11.90;7.53;;;;;;;24.05;68.98;100200.89;1810178;77;28054;-64
2021/06/23 02:59:15;;;;;;;9.85;6.53;;;;;;;24.08;68.97;100208.73;1762100;81;21543;-63
2021/06/23 03:01:49;;;;;;;10.38;6.55;;;;;;;24.04;69.32;100205.89;1847270;77;22213;-61
2021/06/23 03:04:22;;;;;;;6.80;5.70;;;;;;;24.09;69.38;100208.23;1827056;77;22120;-62
2021/06/23 03:06:55;;;;;;;10.10;5.62;;;;;;;24.15;69.22;100211.83;1820212;77;22238;-62
2021/06/23 03:09:29;;;;;;;8.43;5.40;;;;;;;24.24;69.16;100212.52;1851915;77;22127;-62
2021/06/23 03:12:22;;;;;;;9.00;5.60;;;;;;;24.19;69.25;100222.74;1805992;78;21158;-63
2021/06/23 03:14:56;;;;;;;6.42;5.08;;;;;;;24.33;69.17;100223.95;1826779;77;22143;-62
2021/06/23 03:17:29;;;;;;;7.33;4.97;;;;;;;24.28;69.48;100228.80;1819949;77;22171;-64
2021/06/23 03:20:07;;;;;;;6.03;5.17;;;;;;;24.27;69.66;100230.28;1811425;77;22202;-61
2021/06/23 03:22:47;;;;;;;6.75;4.95;;;;;;;24.30;69.66;100217.92;1790856;77;22229;-65
2021/06/23 03:25:33;;;;;;;6.80;5.10;;;;;;;24.43;69.37;100224.63;1759736;81;21245;-61
2021/06/23 03:28:06;;;;;;;14.30;5.55;;;;;;;24.57;69.17;100216.38;1811524;77;22663;-66
2021/06/23 03:30:40;;;;;;;36.45;5.90;;;;;;;24.62;69.10;100218.75;1827513;77;22585;-67
2021/06/23 03:33:13;;;;;;;10.53;7.25;;;;;;;24.69;69.09;100224.05;1829960;77;22223;-63
2021/06/23 03:36:19;;;;;;;13.10;6.25;;;;;;;24.72;69.02;100230.59;1781072;80;21194;-65
2021/06/23 03:38:52;;;;;;;10.93;5.80;;;;;;;24.74;69.20;100232.66;1827601;77;22120;-67
2021/06/23 03:41:25;;;;;;;9.55;5.65;;;;;;;24.90;68.88;100229.70;1820062;77;22202;-64
2021/06/23 03:43:58;;;;;;;12.23;6.05;;;;;;;25.00;68.76;100227.63;1819526;77;22191;-67
2021/06/23 03:46:32;;;;;;;12.18;5.92;;;;;;;25.05;68.72;100228.14;1824643;77;22610;-64
2021/06/23 03:49:05;;;;;;;10.50;5.90;;;;;;;25.12;68.67;100228.05;1838116;77;22154;-64
2021/06/23 03:51:38;;;;;;;14.43;7.17;;;;;;;25.20;68.67;100228.34;1838620;77;22193;-64
2021/06/23 03:54:11;;;;;;;14.38;7.40;;;;;;;25.19;68.90;100229.31;1834497;77;22200;-64
2021/06/23 03:56:59;;;;;;;17.23;7.75;;;;;;;25.17;69.35;100239.34;1783464;80;21300;-66
2021/06/23 03:59:32;;;;;;;10.23;6.55;;;;;;;25.38;69.51;100221.17;1817649;77;22438;-67
2021/06/23 04:02:05;;;;;;;13.60;8.03;;;;;;;25.45;69.36;100221.58;1808062;77;22257;-65
2021/06/23 04:04:52;;;;;;;13.98;7.53;;;;;;;25.47;69.39;100224.51;1741862;81;21201;-66
2021/06/23 04:07:26;;;;;;;17.17;9.15;;;;;;;25.59;69.69;100220.50;1803459;77;22151;-67
2021/06/23 04:09:59;;;;;;;16.95;8.45;;;;;;;25.66;69.96;100224.43;1845790;77;22617;-67
2021/06/23 04:12:32;;;;;;;17.60;8.50;;;;;;;25.70;70.41;100219.17;1819329;77;22199;-64
2021/06/23 04:15:19;;;;;;;15.30;8.48;;;;;;;25.77;70.63;100216.84;1759949;81;21312;-68
2021/06/23 04:17:52;;;;;;;14.78;8.60;;;;;;;25.80;71.07;100220.17;1801328;77;22186;-65
2021/06/23 04:20:25;;;;;;;13.88;8.68;;;;;;;25.83;71.38;100216.36;1813599;77;22198;-66
2021/06/23 04:22:58;;;;;;;18.25;9.85;;;;;;;25.92;70.92;100214.75;1813481;77;22174;-65
2021/06/23 04:25:31;;;;;;;20.32;9.68;;;;;;;25.96;70.86;100210.84;1833361;77;22209;-65
2021/06/23 04:28:05;;;;;;;17.95;10.60;;;;;;;26.00;71.17;100210.13;1805367;77;22185;-67
2021/06/23 04:30:51;;;;;;;14.05;10.23;;;;;;;25.99;71.44;100211.94;1761694;81;21323;-65
2021/06/23 04:33:25;;;;;;;21.80;10.90;;;;;;;26.02;71.68;100207.66;1807445;77;22226;-67
2021/06/23 04:35:58;;;;;;;19.65;10.58;;;;;;;26.13;71.56;100207.69;1834465;77;22167;-63
2021/06/23 04:38:31;;;;;;;13.83;10.58;;;;;;;26.21;71.75;100204.36;1799194;77;22211;-66
2021/06/23 04:41:04;;;;;;;21.12;12.15;;;;;;;26.30;71.60;100209.99;1834517;77;23245;-67
2021/06/23 04:43:37;;;;;;;19.98;13.90;;;;;;;26.38;71.85;100207.53;1804554;77;22222;-63
2021/06/23 04:46:11;;;;;;;20.77;15.08;;;;;;;26.45;71.59;100210.09;1847499;77;22155;-66
2021/06/23 04:48:44;;;;;;;25.90;15.00;;;;;;;26.52;71.42;100206.39;1820360;77;22214;-63
2021/06/23 04:51:17;;;;;;;20.40;15.48;;;;;;;26.56;71.55;100201.95;1826202;77;22168;-63
2021/06/23 04:53:51;;;;;;;21.23;14.20;;;;;;;26.63;71.57;100205.02;1929743;74;22131;-64
2021/06/23 04:56:24;;;;;;;19.57;15.13;;;;;;;27.13;69.88;100199.06;1825201;77;22555;-62
2021/06/23 04:58:58;;;;;;;16.70;14.20;;;;;;;27.93;67.44;100202.59;1826320;77;22163;-63
2021/06/23 05:01:32;;;;;;;16.42;13.43;;;;;;;27.60;68.45;100213.53;1832845;77;22208;-63
2021/06/23 05:04:05;;;;;;;18.55;12.60;;;;;;;27.88;68.55;100214.30;1851097;77;22151;-63
2021/06/23 05:06:44;;;;;;;18.82;12.05;;;;;;;27.61;68.95;100213.05;1829319;77;22156;-63
2021/06/23 05:09:17;;;;;;;18.02;12.00;;;;;;;27.73;69.13;100220.58;1822880;77;22156;-63
2021/06/23 05:11:50;;;;;;;16.93;12.07;;;;;;;28.00;69.05;100225.40;1819628;77;22215;-63
2021/06/23 05:14:23;;;;;;;17.35;11.55;;;;;;;27.85;69.48;100236.20;1823359;77;22198;-63
2021/06/23 05:17:16;;;;;;;16.12;10.55;;;;;;;28.05;69.61;100224.98;1797388;77;22298;-64
2021/06/23 05:20:07;;;;;;;15.80;10.00;;;;;;;28.30;68.85;100225.53;1814838;77;22135;-64
2021/06/23 05:22:54;;;;;;;16.90;8.80;;;;;;;28.41;68.35;100236.26;1758817;81;21162;-62
2021/06/23 05:25:28;;;;;;;17.73;9.93;;;;;;;28.66;67.59;100229.11;1833805;77;22186;-64
2021/06/23 05:28:01;;;;;;;23.20;10.05;;;;;;;28.83;67.29;100227.08;1800807;77;22213;-64
2021/06/23 05:30:34;;;;;;;15.63;8.98;;;;;;;28.92;67.15;100228.10;1817000;77;22190;-64
2021/06/23 05:33:07;;;;;;;17.48;9.30;;;;;;;29.08;66.82;100231.59;1804792;77;22193;-64
2021/06/23 05:35:41;;;;;;;16.07;8.38;;;;;;;29.29;66.48;100233.27;1818064;77;22195;-64
2021/06/23 05:38:14;;;;;;;12.15;7.72;;;;;;;29.50;65.53;100227.70;1794793;77;22620;-64
2021/06/23 05:40:47;;;;;;;17.62;8.08;;;;;;;29.67;64.86;100224.24;1830624;77;22614;-65
2021/06/23 05:43:20;;;;;;;14.35;6.62;;;;;;;29.89;64.45;100220.80;1770562;77;22663;-64
2021/06/23 05:45:53;;;;;;;16.95;6.50;;;;;;;30.10;63.04;100214.33;1831824;77;22116;-64
2021/06/23 05:48:26;;;;;;;18.25;6.15;;;;;;;30.31;61.96;100215.91;1796854;77;22210;-64
2021/06/23 05:50:59;;;;;;;13.93;6.00;;;;;;;30.43;61.72;100218.77;1824080;77;22147;-64
2021/06/23 05:53:45;;;;;;;15.95;6.35;;;;;;;30.43;61.12;100227.44;1728378;82;21174;-65
2021/06/23 05:56:18;;;;;;;21.07;5.83;;;;;;;30.70;60.37;100229.27;1821405;77;22175;-65
2021/06/23 05:58:52;;;;;;;16.57;5.87;;;;;;;30.94;58.59;100239.52;1824147;77;22587;-64
2021/06/23 06:01:37;;;;;;;12.88;5.40;;;;;;;31.14;57.62;100239.36;1777236;80;21571;-65
2021/06/23 06:04:16;;;;;;;15.65;8.20;;;;;;;31.17;57.58;100235.50;1816851;77;22175;-65
2021/06/23 06:06:49;;;;;;;25.20;11.88;;;;;;;31.63;57.58;100240.78;1814952;77;22217;-65
2021/06/23 06:09:23;;;;;;;23.95;12.15;;;;;;;31.66;57.79;100234.50;1825313;77;22124;-64
2021/06/23 06:12:11;;;;;;;15.43;7.75;;;;;;;31.93;56.90;100241.31;1786609;80;21175;-65
2021/06/23 06:14:45;;;;;;;21.42;9.95;;;;;;;32.38;56.66;100237.45;1832449;77;22155;-64
2021/06/23 06:17:18;;;;;;;18.52;7.80;;;;;;;32.83;55.71;100239.45;1840499;77;22217;-64
2021/06/23 06:19:51;;;;;;;20.30;7.10;;;;;;;33.15;53.56;100238.28;1804672;77;22149;-64
2021/06/23 06:22:38;;;;;;;16.37;5.95;;;;;;;33.27;53.50;100234.72;1803954;78;21126;-65
2021/06/23 06:25:12;;;;;;;15.28;6.35;;;;;;;33.44;52.78;100228.77;1820888;77;22163;-64
2021/06/23 06:27:46;;;;;;;21.65;6.15;;;;;;;33.82;51.21;100231.75;1833326;77;22200;-65
2021/06/23 06:30:31;;;;;;;17.10;6.22;;;;;;;33.89;50.34;100229.16;1761562;81;21127;-65
2021/06/23 06:33:06;;;;;;;16.82;6.10;;;;;;;34.17;51.00;100229.60;1807628;77;22201;-65
2021/06/23 06:35:39;;;;;;;17.17;5.75;;;;;;;34.39;50.44;100231.22;1852856;77;22199;-64
2021/06/23 06:38:13;;;;;;;18.12;6.25;;;;;;;34.62;49.80;100226.31;1796037;77;22198;-65
2021/06/23 06:40:46;;;;;;;17.42;7.70;;;;;;;34.59;49.12;100230.27;1795028;77;22198;-64
2021/06/23 06:43:19;;;;;;;25.48;7.85;;;;;;;34.67;49.38;100232.09;1807096;77;22158;-65
2021/06/23 06:45:52;;;;;;;18.32;8.20;;;;;;;34.64;49.67;100231.09;1827530;77;22174;-66
2021/06/23 06:48:25;;;;;;;16.95;8.00;;;;;;;34.54;50.23;100235.42;1809219;77;22454;-65
2021/06/23 06:51:13;;;;;;;18.17;7.40;;;;;;;34.44;50.38;100245.69;1775840;80;21099;-66
2021/06/23 06:53:46;;;;;;;21.87;7.87;;;;;;;34.47;50.04;100242.10;1809600;77;22225;-65
2021/06/23 06:56:19;;;;;;;19.52;7.78;;;;;;;34.40;50.45;100239.22;1820443;77;22170;-65
2021/06/23 06:58:59;;;;;;;19.67;7.10;;;;;;;34.40;50.34;100233.75;1830573;77;22206;-65
2021/06/23 07:01:49;;;;;;;16.48;6.05;;;;;;;34.22;50.03;100239.48;1757339;81;21238;-66
2021/06/23 07:04:22;;;;;;;20.57;6.65;;;;;;;34.22;49.15;100234.55;1834420;77;22204;-64
2021/06/23 07:06:55;;;;;;;18.23;7.03;;;;;;;34.29;49.65;100240.97;1824528;77;22241;-64
2021/06/23 07:09:42;;;;;;;14.35;6.28;;;;;;;34.39;49.07;100242.98;1755050;81;21146;-65
2021/06/23 07:12:15;;;;;;;18.90;6.22;;;;;;;34.51;49.18;100235.25;1823172;77;22210;-65
2021/06/23 07:14:48;;;;;;;16.57;6.62;;;;;;;34.87;50.29;100231.62;1834487;77;22180;-65
2021/06/23 07:17:21;;;;;;;15.70;6.35;;;;;;;35.38;48.69;100233.25;1837083;77;22189;-65
2021/06/23 07:19:54;;;;;;;19.92;7.10;;;;;;;35.58;47.84;100237.70;1820738;77;22187;-65
2021/06/23 07:22:27;;;;;;;13.48;5.50;;;;;;;35.75;47.14;100235.33;1838373;77;22201;-64
2021/06/23 07:25:01;;;;;;;20.45;5.78;;;;;;;35.72;46.12;100238.77;1852800;77;22203;-65
2021/06/23 07:27:34;;;;;;;18.67;5.78;;;;;;;35.55;45.98;100245.45;1812314;77;22198;-64
2021/06/23 07:30:21;;;;;;;15.18;5.60;;;;;;;35.31;45.61;100250.60;1761777;81;21316;-65
2021/06/23 07:33:06;;;;;;;15.20;5.90;;;;;;;35.03;45.77;100244.35;1830633;77;22220;-65
2021/06/23 07:38:48;;;;;;;17.23;5.87;;;;;;;34.51;46.66;100261.73;1819552;77;22245;-64
2021/06/23 07:41:22;;;;;;;14.43;6.05;;;;;;;34.63;46.98;100256.21;1834510;77;22175;-65
2021/06/23 07:44:09;;;;;;;22.52;5.70;;;;;;;34.71;46.94;100259.40;1761805;81;21585;-65
2021/06/23 07:47:00;;;;;;;14.80;5.30;;;;;;;34.75;46.69;100255.27;1814825;77;22569;-64
2021/06/23 07:49:35;;;;;;;15.15;5.25;;;;;;;34.59;46.45;100252.63;1834521;77;22164;-64
2021/06/23 07:52:14;;;;;;;12.37;5.25;;;;;;;34.45;46.47;100259.72;1842941;77;22657;-64
2021/06/23 07:54:50;;;;;;;17.60;5.97;;;;;;;34.42;46.41;100255.94;1806361;77;29112;-64
2021/06/23 08:11:37;;;;;;;16.40;6.50;;;;;;;34.19;49.07;100264.41;1824865;77;22183;-64
2021/06/23 08:14:08;;;;;;;18.90;6.35;;;;;;;34.39;48.67;100266.73;1834388;77;22140;-64
2021/06/23 08:16:41;;;;;;;21.65;6.62;;;;;;;34.66;48.22;100265.38;1830720;77;22195;-65
2021/06/23 08:19:27;;;;;;;19.50;6.37;;;;;;;34.69;48.80;100270.49;1740032;80;21170;-65
2021/06/23 08:22:00;;;;;;;15.88;6.33;;;;;;;35.01;48.76;100265.02;1801258;77;22219;-65
2021/06/23 08:24:33;;;;;;;17.65;6.00;;;;;;;35.43;47.86;100267.74;1834488;77;22187;-65
2021/06/23 08:27:07;;;;;;;19.67;6.12;;;;;;;35.55;47.70;100270.07;1825130;77;22645;-65
2021/06/23 08:29:53;;;;;;;23.15;6.20;;;;;;;35.69;46.77;100275.23;1749587;80;21518;-65
2021/06/23 08:32:26;;;;;;;16.77;5.95;;;;;;;35.68;46.34;100275.77;1838603;77;22225;-65
2021/06/23 08:34:59;;;;;;;17.92;6.12;;;;;;;35.56;46.42;100275.88;1852700;77;22163;-65
2021/06/23 08:37:33;;;;;;;16.48;5.90;;;;;;;35.39;46.79;100278.72;1818951;77;22238;-65
2021/06/23 08:46:19;;;;;;;23.32;6.50;;;;;;;34.84;47.25;100284.27;1834458;77;25521;-65
2021/06/23 08:49:06;;;;;;;19.30;5.67;;;;;;;34.77;47.37;100295.58;1698060;84;21122;-65
2021/06/23 08:51:39;;;;;;;19.95;5.85;;;;;;;34.76;47.77;100290.27;1831254;77;22200;-64
2021/06/23 08:54:13;;;;;;;22.25;6.20;;;;;;;34.72;47.84;100296.62;1834435;77;22583;-66
2021/06/23 08:56:58;;;;;;;25.95;6.12;;;;;;;34.79;47.57;100297.62;1779573;80;21134;-67
2021/06/23 08:59:32;;;;;;;22.73;6.50;;;;;;;34.94;47.70;100290.85;1834293;77;22195;-65
2021/06/23 09:02:06;;;;;;;19.30;6.55;;;;;;;35.10;47.35;100289.91;1825352;77;22661;-65
2021/06/23 09:05:06;;;;;;;19.95;6.30;;;;;;;35.11;47.59;100283.41;1834324;77;22180;-65
2021/06/23 09:07:58;;;;;;;24.63;7.45;;;;;;;35.32;46.76;100290.59;1812171;77;22179;-65
2021/06/23 09:10:34;;;;;;;26.25;7.67;;;;;;;35.41;46.36;100284.03;1826915;77;22195;-65
2021/06/23 09:13:13;;;;;;;18.52;6.45;;;;;;;35.47;46.04;100281.95;1811154;77;22174;-65
2021/06/23 09:16:00;;;;;;;21.55;6.83;;;;;;;35.64;46.03;100285.38;1815637;77;22235;-65
2021/06/23 09:18:37;;;;;;;19.57;5.85;;;;;;;36.23;44.54;100281.51;1805510;77;22210;-65
2021/06/23 09:21:16;;;;;;;18.27;6.65;;;;;;;36.53;43.16;100284.22;1834511;77;22635;-65
2021/06/23 09:24:04;;;;;;;20.80;6.25;;;;;;;36.73;43.35;100292.17;1752515;81;21777;-66
2021/06/23 09:26:38;;;;;;;22.25;6.55;;;;;;;36.99;42.07;100287.20;1826975;77;22190;-64
2021/06/23 09:29:17;;;;;;;17.42;5.80;;;;;;;37.17;41.84;100288.11;1834450;77;22171;-65
2021/06/23 09:32:05;;;;;;;22.10;6.28;;;;;;;37.38;42.34;100295.98;1727913;82;21229;-65
2021/06/23 09:34:45;;;;;;;18.67;5.58;;;;;;;37.79;41.79;100287.89;1820553;77;22598;-65
2021/06/23 09:37:35;;;;;;;21.05;5.70;;;;;;;38.06;41.21;100287.24;1822377;77;22214;-65
2021/06/23 09:40:22;;;;;;;19.90;5.80;;;;;;;38.14;40.90;100292.58;1831369;77;22120;-65
2021/06/23 09:43:10;;;;;;;21.57;6.72;;;;;;;37.85;41.08;100290.89;1777219;80;21598;-64
2021/06/23 09:45:43;;;;;;;21.37;7.10;;;;;;;37.80;40.95;100292.84;1823106;77;22164;-65
2021/06/23 09:48:22;;;;;;;23.27;5.67;;;;;;;37.95;40.89;100291.41;1800591;77;22255;-65
2021/06/23 09:51:20;;;;;;;18.42;5.50;;;;;;;38.26;40.71;100286.48;1739658;81;21384;-65
2021/06/23 09:53:58;;;;;;;20.20;5.45;;;;;;;38.50;40.80;100279.12;1834430;77;22168;-65
2021/06/23 09:56:37;;;;;;;29.20;7.15;;;;;;;38.74;39.89;100281.52;1816589;77;22198;-65
2021/06/23 09:59:34;;;;;;;19.55;5.20;;;;;;;38.97;39.12;100277.87;1826572;77;22167;-65
2021/06/23 10:02:31;;;;;;;16.52;5.87;;;;;;;38.93;38.37;100285.39;1780069;80;21197;-65
2021/06/23 10:05:25;;;;;;;21.65;5.25;;;;;;;38.42;39.01;100285.34;1834385;77;22586;-65
2021/06/23 10:07:58;;;;;;;24.82;5.60;;;;;;;38.36;39.06;100283.70;1798926;77;22221;-65
2021/06/23 10:10:44;;;;;;;19.82;5.62;;;;;;;38.36;38.53;100283.70;1852620;77;22199;-64
2021/06/23 10:13:31;;;;;;;25.00;5.92;;;;;;;38.37;38.56;100277.66;1792488;78;21130;-66
2021/06/23 10:16:10;;;;;;;20.50;5.55;;;;;;;38.49;37.96;100265.06;1828979;77;22190;-65
2021/06/23 10:18:43;;;;;;;23.32;6.12;;;;;;;38.52;38.61;100267.91;1820662;77;22221;-64
2021/06/23 10:21:16;;;;;;;17.75;5.80;;;;;;;38.47;38.12;100271.80;1833777;77;22725;-64
2021/06/23 10:23:49;;;;;;;15.72;5.08;;;;;;;38.37;38.51;100274.40;1819608;77;22230;-65
2021/06/23 10:26:39;;;;;;;21.97;5.40;;;;;;;38.53;38.76;100270.98;1776259;80;21288;-64
2021/06/23 10:29:14;;;;;;;23.00;6.80;;;;;;;38.92;37.25;100265.83;1832005;77;22187;-64
2021/06/23 10:31:47;;;;;;;28.60;7.10;;;;;;;39.14;37.01;100266.48;1830476;77;28117;-65
2021/06/23 10:34:34;;;;;;;20.25;5.75;;;;;;;39.44;36.73;100274.33;1762270;80;21296;-65
2021/06/23 10:37:08;;;;;;;20.10;5.65;;;;;;;39.67;36.71;100261.49;1824808;77;22202;-64
2021/06/23 10:39:41;;;;;;;21.12;5.33;;;;;;;39.36;36.10;100258.03;1851964;77;22195;-64
2021/06/23 10:42:15;;;;;;;13.78;5.25;;;;;;;39.11;37.17;100255.89;1841184;77;22190;-64
2021/06/23 10:45:02;;;;;;;16.50;5.05;;;;;;;39.23;36.58;100254.21;1794063;80;21165;-65
2021/06/23 10:47:44;;;;;;;20.62;5.30;;;;;;;39.61;36.08;100251.88;1818092;77;22627;-64
2021/06/23 10:50:35;;;;;;;24.02;5.87;;;;;;;39.78;35.72;100252.30;1852118;77;22157;-64
2021/06/23 10:53:33;;;;;;;19.07;5.08;;;;;;;39.92;35.84;100253.96;1795910;78;21204;-64
2021/06/23 10:56:06;;;;;;;23.45;6.37;;;;;;;40.15;35.67;100257.59;1837092;77;27968;-64
2021/06/23 10:58:39;;;;;;;24.50;5.60;;;;;;;40.20;36.12;100253.30;1803967;77;22206;-64
2021/06/23 11:01:25;;;;;;;21.77;5.55;;;;;;;40.37;35.53;100257.84;1761392;80;21166;-64
2021/06/23 11:04:04;;;;;;;23.45;5.08;;;;;;;40.65;34.99;100258.01;1834319;77;22187;-64
2021/06/23 11:06:45;;;;;;;18.07;5.40;;;;;;;40.82;34.59;100259.73;1849934;77;22649;-64
2021/06/23 11:09:32;;;;;;;20.27;5.25;;;;;;;40.64;34.07;100262.66;1793010;80;21201;-64
2021/06/23 11:12:07;;;;;;;17.15;5.35;;;;;;;40.64;33.97;100259.07;1812697;77;22260;-64
2021/06/23 11:14:40;;;;;;;20.75;6.10;;;;;;;40.65;34.24;100255.25;1827238;77;22186;-64
2021/06/23 11:17:30;;;;;;;18.95;5.00;;;;;;;40.63;34.62;100267.86;1782931;80;21185;-63
2021/06/23 11:20:20;;;;;;;13.98;4.55;;;;;;;40.67;33.68;100259.49;1845263;77;22140;-63
2021/06/23 11:22:56;;;;;;;21.37;4.97;;;;;;;41.18;34.03;100254.93;1814295;77;22241;-64
2021/06/23 11:25:32;;;;;;;28.77;6.83;;;;;;;41.40;31.77;100255.06;1804419;77;28469;-63
2021/06/23 11:28:14;;;;;;;18.35;5.45;;;;;;;41.23;32.22;100254.80;1811665;77;22150;-63
2021/06/23 11:31:03;;;;;;;20.02;6.20;;;;;;;40.91;33.13;100250.64;1822211;77;22300;-63
2021/06/23 11:33:39;;;;;;;21.90;5.45;;;;;;;40.59;33.62;100250.09;1811144;77;22241;-64
2021/06/23 11:36:16;;;;;;;19.95;4.90;;;;;;;40.25;34.00;100255.77;1852876;77;22309;-64
2021/06/23 11:38:52;;;;;;;11.83;4.37;;;;;;;39.99;35.01;100260.81;1817792;77;22644;-64
2021/06/23 11:41:38;;;;;;;16.93;5.35;;;;;;;39.86;34.75;100261.71;1788191;80;21166;-64
2021/06/23 11:44:11;;;;;;;20.17;5.10;;;;;;;40.01;35.46;100260.07;1827378;77;22131;-64
2021/06/23 11:46:45;;;;;;;15.95;5.12;;;;;;;40.24;35.61;100251.33;1832219;77;23462;-63
2021/06/23 11:49:18;;;;;;;18.25;5.15;;;;;;;40.63;35.19;100252.69;1826416;77;22565;-63
2021/06/23 11:51:51;;;;;;;19.42;5.00;;;;;;;40.94;34.87;100253.81;1819108;77;22226;-64
2021/06/23 11:54:38;;;;;;;20.80;4.90;;;;;;;41.36;34.01;100260.73;1750268;81;21087;-63
2021/06/23 11:57:11;;;;;;;19.75;4.53;;;;;;;41.43;33.47;100258.75;1818128;77;22221;-62
2021/06/23 11:59:45;;;;;;;21.33;5.62;;;;;;;41.13;33.69;100256.66;1834564;77;22571;-63
2021/06/23 12:02:31;;;;;;;20.82;5.12;;;;;;;40.89;34.20;100259.98;1777859;80;21533;-64
2021/06/23 12:05:06;;;;;;;16.32;5.30;;;;;;;40.79;34.19;100253.28;1850695;77;22199;-63
2021/06/23 12:07:39;;;;;;;20.55;5.53;;;;;;;40.80;34.43;100254.45;1803077;77;22653;-64
2021/06/23 12:10:13;;;;;;;15.68;4.83;;;;;;;40.68;32.74;100250.70;1833919;77;22350;-63
2021/06/23 12:13:00;;;;;;;16.75;4.03;;;;;;;40.47;33.32;100255.44;1677419;84;21194;-63
2021/06/23 12:15:33;;;;;;;23.00;4.80;;;;;;;40.45;32.54;100254.81;1828346;77;22124;-63
2021/06/23 12:18:07;;;;;;;17.07;4.40;;;;;;;40.32;32.04;100256.28;1829426;77;22193;-63
2021/06/23 12:20:53;;;;;;;16.75;4.35;;;;;;;40.18;32.39;100256.84;1789134;80;21178;-64
2021/06/23 12:23:26;;;;;;;18.02;4.78;;;;;;;40.23;32.41;100251.53;1824139;77;22193;-63
2021/06/23 12:26:00;;;;;;;19.85;5.30;;;;;;;40.22;32.85;100248.45;1829980;77;22632;-63
2021/06/23 12:28:46;;;;;;;18.42;4.55;;;;;;;40.17;33.34;100244.95;1762535;80;21336;-64
2021/06/23 12:31:19;;;;;;;15.93;5.05;;;;;;;40.54;32.93;100241.64;1824909;77;22604;-63
2021/06/23 12:33:52;;;;;;;17.62;5.20;;;;;;;40.73;32.62;100243.44;1812318;77;22215;-62